Easterwood Field
KCLL : now visible

Airfield :











YOU CAN JOIN US ON...

 
LOGIN :

Register | Disclaimer

   EN    FR    IT 

 









Legend :    VFR   Marginal VFR   IFR   Intensive IFR   Very Intensive IFR
Visi :
Ceiling :
>= 8 km
>= 3000ft
5 to 8 km
1000 to 3000 ft
1500m to 5 km
500 to 1000 ft
800 to 1500m
200 to 500 ft
< 800m
< 200 ft
Symbols :   Thunderstorms  Fog  Heavy snow  Heavy precipitations  Wind > 20 kt






- Airport Elevation : 320 ft
- IATA code : CLL


KCLL - Easterwood Field

CURRENT METAR :
  • 192353Z 02012KT 8SM CLR 26/13 A3001 RMK AO2 SLP157 T02610133 10300 20261 53007

EXPIRED METARs :
  • 192253Z 03015KT 9SM CLR 28/13 A3000 RMK AO2 SLP154 T02780128
  • 192153Z 02011KT 9SM CLR 28/13 A2999 RMK AO2 SLP149 T02830133

TAF KCLL
Valid from the 20 at 00:00 until the 21 at 00:00 UTC


192345Z 2000/2024 02010KT P6SM FEW050 SCT250
FM201200 01009KT P6SM SKC
FM201400 01012G18KT P6SM FEW250
FM201700 02013G19KT P6SM SCT060
FM201800 02013G20KT P6SM BKN015 BKN050
FM202300 04015G22KT 4SM -RA BR BKN007 BKN015
KZHU FIR / North America



MET'MAP, your aeronautical weather chart ! - Copyright ORBIFLY December 2007 - Disclaimer

ORBIFLY MET'MAP TEAM :

Programming & Development : Alexandra Zaïnal
Concept & original design : Baudouin d'Aumeries
Assistance for programming : Marc-Olivier Méhu
Technical & hardware support : Manuel Goepfert

Contact : metmap@orbifly.com




SOURCES & CREDITS :

   NOAA       Earth
Advisory